createdAt,value
2018-01-27T00:00:23.860Z,44.40
2018-01-27T00:01:23.925Z,41.00
2018-01-27T00:02:23.953Z,45.30
2018-01-27T00:03:24.745Z,50.60
2018-01-27T00:04:24.013Z,48.10
2018-01-27T00:05:24.725Z,43.60
2018-01-27T00:06:24.807Z,47.80
2018-01-27T00:07:23.778Z,41.80
2018-01-27T00:08:23.772Z,43.20
2018-01-27T00:09:23.768Z,42.50
2018-01-27T00:10:23.865Z,45.90
2018-01-27T00:11:23.769Z,59.30
2018-01-27T00:12:23.760Z,61.10
2018-01-27T00:13:23.753Z,58.30
2018-01-27T00:14:23.759Z,66.40
2018-01-27T00:15:23.785Z,64.30
2018-01-27T00:16:23.746Z,59.70
2018-01-27T00:17:23.742Z,47.60
2018-01-27T00:18:23.739Z,46.60
2018-01-27T00:19:23.745Z,43.50
2018-01-27T00:20:23.732Z,46.80
2018-01-27T00:21:23.737Z,53.30
2018-01-27T00:22:23.725Z,42.70
2018-01-27T00:23:23.743Z,43.10
2018-01-27T00:24:23.737Z,44.90
2018-01-27T00:25:23.716Z,41.20
2018-01-27T00:26:24.692Z,47.00
2018-01-27T00:27:23.709Z,47.80
2018-01-27T00:28:23.879Z,42.70
2018-01-27T00:29:23.720Z,46.30
2018-01-27T00:30:23.699Z,50.90
2018-01-27T00:31:23.698Z,53.20
2018-01-27T00:32:23.698Z,46.30
2018-01-27T00:33:23.703Z,47.50
2018-01-27T00:34:23.687Z,54.80
2018-01-27T00:35:23.703Z,46.80
2018-01-27T00:36:23.679Z,46.10
2018-01-27T00:37:23.674Z,52.10
2018-01-27T00:38:23.681Z,46.40
2018-01-27T00:39:23.678Z,43.40
2018-01-27T00:40:23.683Z,49.40
2018-01-27T00:41:23.665Z,42.20
2018-01-27T00:42:23.696Z,46.10
2018-01-27T00:43:23.704Z,44.90
2018-01-27T00:44:23.692Z,42.10
2018-01-27T00:45:23.731Z,49.00
2018-01-27T00:46:23.914Z,46.90
2018-01-27T00:47:23.650Z,48.00
2018-01-27T00:48:23.640Z,48.40
2018-01-27T00:49:23.639Z,48.00
2018-01-27T00:50:23.676Z,53.80
2018-01-27T00:51:24.771Z,49.90
2018-01-27T00:52:23.694Z,51.10
2018-01-27T00:53:23.622Z,48.90
2018-01-27T00:54:23.702Z,50.80
2018-01-27T00:55:24.237Z,44.50
2018-01-27T00:56:23.825Z,51.40
2018-01-27T00:57:24.240Z,47.60
2018-01-27T00:58:24.196Z,45.30
2018-01-27T00:59:24.749Z,50.90
2018-01-27T01:00:23.605Z,52.90
2018-01-27T01:01:23.607Z,48.10
2018-01-27T01:02:23.619Z,67.00
2018-01-27T01:03:24.194Z,90.00
2018-01-27T01:04:24.245Z,89.70
2018-01-27T01:05:23.612Z,65.40
2018-01-27T01:06:24.261Z,67.40
2018-01-27T01:07:23.596Z,52.70
2018-01-27T01:08:23.612Z,63.20
2018-01-27T01:09:24.228Z,81.80
2018-01-27T01:10:23.636Z,78.70
2018-01-27T01:11:24.250Z,74.50
2018-01-27T01:12:24.771Z,67.10
2018-01-27T01:13:24.258Z,62.20
2018-01-27T01:14:24.215Z,58.10
2018-01-27T01:15:24.250Z,53.80
2018-01-27T01:16:23.641Z,58.00
2018-01-27T01:17:24.391Z,54.50
2018-01-27T01:18:23.598Z,58.30
2018-01-27T01:19:24.227Z,64.60
2018-01-27T01:20:23.713Z,64.10
2018-01-27T01:21:24.203Z,66.00
2018-01-27T01:22:23.606Z,59.00
2018-01-27T01:23:24.221Z,48.40
2018-01-27T01:24:24.788Z,46.60
2018-01-27T01:25:24.741Z,44.20
2018-01-27T01:26:24.267Z,43.50
2018-01-27T01:27:23.714Z,52.80
2018-01-27T01:28:23.531Z,48.20
2018-01-27T01:29:23.489Z,49.40
2018-01-27T01:30:23.648Z,51.40
2018-01-27T01:31:23.590Z,59.00
2018-01-27T01:32:24.262Z,51.00
2018-01-27T01:33:23.522Z,52.90
2018-01-27T01:34:25.787Z,56.30
2018-01-27T01:35:23.479Z,52.50
2018-01-27T01:36:24.452Z,51.60
2018-01-27T01:37:23.595Z,52.70
2018-01-27T01:38:24.229Z,52.60
2018-01-27T01:39:23.596Z,51.50
2018-01-27T01:40:24.739Z,53.80
2018-01-27T01:41:23.595Z,57.40
2018-01-27T01:42:23.461Z,51.50
2018-01-27T01:43:23.478Z,51.10
2018-01-27T01:44:23.497Z,48.60
2018-01-27T01:45:23.459Z,51.20
2018-01-27T01:46:23.552Z,48.60
2018-01-27T01:47:23.514Z,52.00
2018-01-27T01:48:23.411Z,50.30
2018-01-27T01:49:23.403Z,54.00
2018-01-27T01:50:23.410Z,59.40
2018-01-27T01:51:23.405Z,56.20
2018-01-27T01:52:23.394Z,55.10
2018-01-27T01:53:23.387Z,54.10
2018-01-27T01:54:23.388Z,48.90
2018-01-27T01:55:24.764Z,57.30
2018-01-27T01:56:23.463Z,54.50
2018-01-27T01:57:23.373Z,46.80
2018-01-27T01:58:23.483Z,52.90
2018-01-27T01:59:23.381Z,53.40
2018-01-27T02:00:23.428Z,52.40
2018-01-27T02:01:23.440Z,58.30
2018-01-27T02:02:23.396Z,57.50
2018-01-27T02:03:24.279Z,48.90
2018-01-27T02:04:24.243Z,52.60
2018-01-27T02:05:23.537Z,51.60
2018-01-27T02:06:23.443Z,51.80
2018-01-27T02:07:23.401Z,55.00
2018-01-27T02:08:24.264Z,52.40
2018-01-27T02:09:24.272Z,55.70
2018-01-27T02:10:23.395Z,61.70
2018-01-27T02:11:23.335Z,70.90
2018-01-27T02:12:24.261Z,63.30
2018-01-27T02:13:23.407Z,79.60
2018-01-27T02:14:23.321Z,78.50
2018-01-27T02:15:23.308Z,89.20
2018-01-27T02:16:23.307Z,84.90
2018-01-27T02:17:23.300Z,81.70
2018-01-27T02:18:24.305Z,76.80
2018-01-27T02:19:24.352Z,63.80
2018-01-27T02:20:23.370Z,61.30
2018-01-27T02:21:24.215Z,62.70
2018-01-27T02:22:23.307Z,67.30
2018-01-27T02:23:23.284Z,61.10
2018-01-27T02:24:23.284Z,54.80
2018-01-27T02:25:23.284Z,60.00
2018-01-27T02:26:23.265Z,61.30
2018-01-27T02:27:23.304Z,63.20
2018-01-27T02:28:23.258Z,54.70
2018-01-27T02:29:23.718Z,56.10
2018-01-27T02:30:23.251Z,50.50
2018-01-27T02:31:24.259Z,50.20
2018-01-27T02:32:23.244Z,51.90
2018-01-27T02:33:23.240Z,52.30
2018-01-27T02:34:23.234Z,54.40
2018-01-27T02:35:23.251Z,56.20
2018-01-27T02:36:23.243Z,61.30
2018-01-27T02:37:23.262Z,62.10
2018-01-27T02:38:24.280Z,62.10
2018-01-27T02:39:24.270Z,62.20
2018-01-27T02:40:23.323Z,64.30
2018-01-27T02:41:24.225Z,62.30
2018-01-27T02:42:23.255Z,57.50
2018-01-27T02:43:24.273Z,61.10
2018-01-27T02:44:24.254Z,63.60
2018-01-27T02:45:24.266Z,68.80
2018-01-27T02:46:24.239Z,72.10
2018-01-27T02:47:23.786Z,62.50
2018-01-27T02:48:23.712Z,65.70
2018-01-27T02:49:25.723Z,61.00
2018-01-27T02:50:23.282Z,58.10
2018-01-27T02:51:24.275Z,63.10
2018-01-27T02:52:24.283Z,61.80
2018-01-27T02:53:23.278Z,63.10
2018-01-27T02:54:23.730Z,65.30
2018-01-27T02:55:23.256Z,68.60
2018-01-27T02:56:24.272Z,235.10
2018-01-27T02:57:23.204Z,116.50
2018-01-27T02:58:23.148Z,65.60
2018-01-27T02:59:23.286Z,68.70
2018-01-27T03:00:23.715Z,65.10
2018-01-27T03:01:23.726Z,71.30
2018-01-27T03:02:23.802Z,67.20
2018-01-27T03:03:24.223Z,68.50
2018-01-27T03:04:23.149Z,63.90
2018-01-27T03:05:23.309Z,62.40
2018-01-27T03:06:23.125Z,67.20
2018-01-27T03:07:23.104Z,64.90
2018-01-27T03:08:23.723Z,67.90
2018-01-27T03:09:23.175Z,64.30
2018-01-27T03:10:23.102Z,71.90
2018-01-27T03:11:23.131Z,72.90
2018-01-27T03:12:23.257Z,69.60
2018-01-27T03:13:23.242Z,69.40
2018-01-27T03:14:23.064Z,74.00
2018-01-27T03:15:23.720Z,77.20
2018-01-27T03:16:23.132Z,64.90
2018-01-27T03:17:23.719Z,68.70
2018-01-27T03:18:23.741Z,70.20
2018-01-27T03:19:23.855Z,72.50
2018-01-27T03:20:23.065Z,66.60
2018-01-27T03:21:24.212Z,64.20
2018-01-27T03:22:23.176Z,75.40
2018-01-27T03:23:23.137Z,74.00
2018-01-27T03:24:24.271Z,67.90
2018-01-27T03:25:24.243Z,68.60
2018-01-27T03:26:23.162Z,69.30
2018-01-27T03:27:23.082Z,72.60
2018-01-27T03:28:23.788Z,74.60
2018-01-27T03:29:23.075Z,64.50
2018-01-27T03:30:24.291Z,73.70
2018-01-27T03:31:23.782Z,74.00
2018-01-27T03:32:23.120Z,66.20
2018-01-27T03:33:23.779Z,67.50
2018-01-27T03:34:22.994Z,69.80
2018-01-27T03:35:23.801Z,69.00
2018-01-27T03:36:23.731Z,61.80
2018-01-27T03:37:23.797Z,63.30
2018-01-27T03:38:23.891Z,66.90
2018-01-27T03:39:23.812Z,63.70
2018-01-27T03:40:23.846Z,64.40
2018-01-27T03:41:23.226Z,61.50
2018-01-27T03:42:23.790Z,58.50
2018-01-27T03:43:23.833Z,64.40
2018-01-27T03:44:23.021Z,67.80
2018-01-27T03:45:23.794Z,62.10
2018-01-27T03:46:23.112Z,62.60
2018-01-27T03:47:22.988Z,61.00
2018-01-27T03:48:23.003Z,60.00
2018-01-27T03:49:23.772Z,61.20
2018-01-27T03:50:22.960Z,58.20
2018-01-27T03:51:23.771Z,60.00
2018-01-27T03:52:22.964Z,63.00
2018-01-27T03:53:22.980Z,56.60
2018-01-27T03:54:22.964Z,59.00
2018-01-27T03:55:22.928Z,54.40
2018-01-27T03:56:23.002Z,51.00
2018-01-27T03:57:23.821Z,55.30
2018-01-27T03:58:23.790Z,57.60
2018-01-27T03:59:23.734Z,54.20
2018-01-27T04:00:23.782Z,53.90
2018-01-27T04:01:23.719Z,53.50
2018-01-27T04:02:22.907Z,55.20
2018-01-27T04:03:22.867Z,54.60
2018-01-27T04:04:22.913Z,50.80
2018-01-27T04:05:22.873Z,57.20
2018-01-27T04:06:23.761Z,54.50
2018-01-27T04:07:23.768Z,54.60
2018-01-27T04:08:22.876Z,56.40
2018-01-27T04:09:22.964Z,56.40
2018-01-27T04:10:22.898Z,50.80
2018-01-27T04:11:23.792Z,59.30
2018-01-27T04:12:23.015Z,56.80
2018-01-27T04:13:22.832Z,53.90
2018-01-27T04:14:22.827Z,53.30
2018-01-27T04:15:22.830Z,56.70
2018-01-27T04:16:22.939Z,57.30
2018-01-27T04:17:23.829Z,53.00
2018-01-27T04:18:37.799Z,51.10
2018-01-27T04:19:23.764Z,52.70
2018-01-27T04:20:23.763Z,53.20
2018-01-27T04:21:23.781Z,52.40
2018-01-27T04:22:22.861Z,56.10
2018-01-27T04:23:22.809Z,57.00
2018-01-27T04:24:22.834Z,52.00
2018-01-27T04:25:22.890Z,53.80
2018-01-27T04:26:23.779Z,55.60
2018-01-27T04:27:22.821Z,54.60
2018-01-27T04:28:23.725Z,55.30
2018-01-27T04:29:23.790Z,58.10
2018-01-27T04:30:22.845Z,56.40
2018-01-27T04:31:22.960Z,63.10
2018-01-27T04:32:24.250Z,52.70
2018-01-27T04:33:22.761Z,55.20
2018-01-27T04:34:22.774Z,54.60
2018-01-27T04:35:22.752Z,59.40
2018-01-27T04:36:23.776Z,58.50
2018-01-27T04:37:24.276Z,56.20
2018-01-27T04:38:23.730Z,60.10
2018-01-27T04:39:23.774Z,62.50
2018-01-27T04:40:22.807Z,59.80
2018-01-27T04:41:22.785Z,62.30
2018-01-27T04:42:23.752Z,59.90
2018-01-27T04:43:23.771Z,62.90
2018-01-27T04:44:22.777Z,63.50
2018-01-27T04:45:23.844Z,72.70
2018-01-27T04:46:23.827Z,64.50
2018-01-27T04:47:22.961Z,63.20
2018-01-27T04:48:23.825Z,60.90
2018-01-27T04:49:22.908Z,67.40
2018-01-27T04:50:24.310Z,60.60
2018-01-27T04:51:23.815Z,62.20
2018-01-27T04:52:23.788Z,64.50
2018-01-27T04:53:24.422Z,63.70
2018-01-27T04:54:23.810Z,58.20
2018-01-27T04:55:23.826Z,57.00
2018-01-27T04:56:23.848Z,64.70
2018-01-27T04:57:24.782Z,60.10
2018-01-27T04:58:22.849Z,65.20
2018-01-27T04:59:23.336Z,61.40
2018-01-27T05:00:23.767Z,61.20
2018-01-27T05:01:24.301Z,63.40
2018-01-27T05:02:22.664Z,61.60
2018-01-27T05:03:22.793Z,62.70
2018-01-27T05:04:22.796Z,60.20
2018-01-27T05:05:22.746Z,63.00
2018-01-27T05:06:23.782Z,64.50
2018-01-27T05:07:26.326Z,61.10
2018-01-27T05:08:24.324Z,59.20
2018-01-27T05:09:22.762Z,60.50
2018-01-27T05:10:22.692Z,64.70
2018-01-27T05:11:22.746Z,62.10
2018-01-27T05:12:23.239Z,64.20
2018-01-27T05:13:23.296Z,60.60
2018-01-27T05:14:23.271Z,58.30
2018-01-27T05:15:22.672Z,57.60
2018-01-27T05:16:24.308Z,61.70
2018-01-27T05:17:22.725Z,58.30
2018-01-27T05:18:23.258Z,55.20
2018-01-27T05:19:22.749Z,57.00
2018-01-27T05:20:23.340Z,57.20
2018-01-27T05:21:23.232Z,54.20
2018-01-27T05:22:22.672Z,63.00
2018-01-27T05:23:24.297Z,60.00
2018-01-27T05:24:23.316Z,59.00
2018-01-27T05:25:23.252Z,60.80
2018-01-27T05:26:22.711Z,66.40
2018-01-27T05:27:23.249Z,60.00
2018-01-27T05:28:23.785Z,59.10
2018-01-27T05:29:23.254Z,53.10
2018-01-27T05:30:22.647Z,61.80
2018-01-27T05:31:23.237Z,59.00
2018-01-27T05:32:23.263Z,55.80
2018-01-27T05:33:22.624Z,53.10
2018-01-27T05:34:23.272Z,60.30
2018-01-27T05:35:22.669Z,58.40
2018-01-27T05:36:22.690Z,54.90
2018-01-27T05:37:23.296Z,67.50
2018-01-27T05:38:23.307Z,60.00
2018-01-27T05:39:22.550Z,57.70
2018-01-27T05:40:23.250Z,56.70
2018-01-27T05:41:22.570Z,58.50
2018-01-27T05:42:22.570Z,54.50
2018-01-27T05:43:24.792Z,58.30
2018-01-27T05:44:22.567Z,62.90
2018-01-27T05:45:22.650Z,59.20
2018-01-27T05:46:22.540Z,61.80
2018-01-27T05:47:23.733Z,59.90
2018-01-27T05:48:23.281Z,58.00
2018-01-27T05:49:23.260Z,62.30
2018-01-27T05:50:23.235Z,59.70
2018-01-27T05:51:23.247Z,64.40
2018-01-27T05:52:23.253Z,58.60
2018-01-27T05:53:22.574Z,62.00
2018-01-27T05:54:22.536Z,62.50
2018-01-27T05:55:23.284Z,64.70
2018-01-27T05:56:23.258Z,62.60
2018-01-27T05:57:22.517Z,61.30
2018-01-27T05:58:22.543Z,61.30
2018-01-27T05:59:22.449Z,64.00
2018-01-27T06:00:22.523Z,68.40
2018-01-27T06:01:23.308Z,63.70
2018-01-27T06:02:22.542Z,61.60
2018-01-27T06:03:22.482Z,65.60
2018-01-27T06:04:22.479Z,61.40
2018-01-27T06:05:22.455Z,57.50
2018-01-27T06:06:23.277Z,58.30
2018-01-27T06:07:23.329Z,59.90
2018-01-27T06:08:23.301Z,63.60
2018-01-27T06:09:22.597Z,60.90
2018-01-27T06:10:22.450Z,60.30
2018-01-27T06:11:22.467Z,65.50
2018-01-27T06:12:22.485Z,62.30
2018-01-27T06:13:22.545Z,63.60
2018-01-27T06:14:22.585Z,60.30
2018-01-27T06:15:22.543Z,62.40
2018-01-27T06:16:22.446Z,64.70
2018-01-27T06:17:22.502Z,61.60
2018-01-27T06:18:23.238Z,63.30
2018-01-27T06:19:23.344Z,67.60
2018-01-27T06:20:23.768Z,66.80
2018-01-27T06:21:22.432Z,64.50
2018-01-27T06:22:23.294Z,62.30
2018-01-27T06:23:23.290Z,64.60
2018-01-27T06:24:22.480Z,70.30
2018-01-27T06:25:23.271Z,71.90
2018-01-27T06:26:23.338Z,65.30
2018-01-27T06:27:22.358Z,65.00
2018-01-27T06:28:22.351Z,67.10
2018-01-27T06:29:22.340Z,66.60
2018-01-27T06:30:22.338Z,70.70
2018-01-27T06:31:22.332Z,70.90
2018-01-27T06:32:22.329Z,68.20
2018-01-27T06:33:22.325Z,72.10
2018-01-27T06:34:22.322Z,66.10
2018-01-27T06:35:22.318Z,66.50
2018-01-27T06:36:22.315Z,79.40
2018-01-27T06:37:22.310Z,63.90
2018-01-27T06:38:22.435Z,61.70
2018-01-27T06:39:22.306Z,72.20
2018-01-27T06:40:22.308Z,69.30
2018-01-27T06:41:22.297Z,67.10
2018-01-27T06:42:22.297Z,78.00
2018-01-27T06:43:22.290Z,76.70
2018-01-27T06:44:22.309Z,81.90
2018-01-27T06:45:22.288Z,68.90
2018-01-27T06:46:22.293Z,79.60
2018-01-27T06:47:22.288Z,74.20
2018-01-27T06:48:22.273Z,77.50
2018-01-27T06:49:22.268Z,74.30
2018-01-27T06:50:22.265Z,76.00
2018-01-27T06:51:22.262Z,82.40
2018-01-27T06:52:22.259Z,81.50
2018-01-27T06:53:22.259Z,76.50
2018-01-27T06:54:22.253Z,73.40
2018-01-27T06:55:22.758Z,78.60
2018-01-27T06:56:22.244Z,82.60
2018-01-27T06:57:22.243Z,77.00
2018-01-27T06:58:22.237Z,78.10
2018-01-27T06:59:22.234Z,81.10
2018-01-27T07:00:22.235Z,81.40
2018-01-27T07:01:22.229Z,69.70
2018-01-27T07:02:22.223Z,76.40
2018-01-27T07:03:22.220Z,77.80
2018-01-27T07:04:22.217Z,70.50
2018-01-27T07:05:22.214Z,79.60
2018-01-27T07:06:22.211Z,77.10
2018-01-27T07:07:22.211Z,75.40
2018-01-27T07:08:22.208Z,76.50
2018-01-27T07:09:22.199Z,81.30
2018-01-27T07:10:22.195Z,80.50
2018-01-27T07:11:22.192Z,86.10
2018-01-27T07:12:22.193Z,81.30
2018-01-27T07:13:22.199Z,80.10
2018-01-27T07:14:22.183Z,74.50
2018-01-27T07:15:22.178Z,78.00
2018-01-27T07:16:22.175Z,79.30
2018-01-27T07:17:22.171Z,81.40
2018-01-27T07:18:22.245Z,74.30
2018-01-27T07:19:22.165Z,73.30
2018-01-27T07:20:22.161Z,77.30
2018-01-27T07:21:22.289Z,70.50
2018-01-27T07:22:22.360Z,75.50
2018-01-27T07:23:22.153Z,87.20
2018-01-27T07:24:22.155Z,86.80
2018-01-27T07:25:22.229Z,79.10
2018-01-27T07:26:22.147Z,76.80
2018-01-27T07:27:22.140Z,79.20
2018-01-27T07:28:22.130Z,77.20
2018-01-27T07:29:22.134Z,79.60
2018-01-27T07:30:22.325Z,81.10
2018-01-27T07:31:22.128Z,77.40
2018-01-27T07:32:22.122Z,76.70
2018-01-27T07:33:22.116Z,80.50
2018-01-27T07:34:22.108Z,71.50
2018-01-27T07:35:22.111Z,73.80
2018-01-27T07:36:22.103Z,79.80
2018-01-27T07:37:22.147Z,72.90
2018-01-27T07:38:22.142Z,78.00
2018-01-27T07:39:22.118Z,77.10
2018-01-27T07:40:22.092Z,79.60
2018-01-27T07:41:22.118Z,76.90
2018-01-27T07:42:22.100Z,73.50
2018-01-27T07:43:22.077Z,71.00
2018-01-27T07:44:22.078Z,74.90
2018-01-27T07:45:22.069Z,68.90
2018-01-27T07:46:22.065Z,75.30
2018-01-27T07:47:22.060Z,78.50
2018-01-27T07:48:22.057Z,76.10
2018-01-27T07:49:22.058Z,80.30
2018-01-27T07:50:22.049Z,72.40
2018-01-27T07:51:22.047Z,72.90
2018-01-27T07:52:22.042Z,68.10
2018-01-27T07:53:22.042Z,71.30
2018-01-27T07:54:22.034Z,75.10
2018-01-27T07:55:22.042Z,73.30
2018-01-27T07:56:22.054Z,72.60
2018-01-27T07:57:22.022Z,81.40
2018-01-27T07:58:22.020Z,71.90
2018-01-27T07:59:22.016Z,72.50
2018-01-27T08:00:22.013Z,71.40
2018-01-27T08:01:22.008Z,70.10
2018-01-27T08:02:22.003Z,66.90
2018-01-27T08:03:22.008Z,68.40
2018-01-27T08:04:21.998Z,67.20
2018-01-27T08:05:21.994Z,68.90
2018-01-27T08:06:21.990Z,79.00
2018-01-27T08:07:21.989Z,79.00
2018-01-27T08:08:21.989Z,69.70
2018-01-27T08:09:21.979Z,68.40
2018-01-27T08:10:21.973Z,77.90
2018-01-27T08:11:21.970Z,65.40
2018-01-27T08:12:21.967Z,70.10
2018-01-27T08:13:21.961Z,68.20
2018-01-27T08:14:21.958Z,61.90
2018-01-27T08:15:21.954Z,72.60
2018-01-27T08:16:21.950Z,65.70
2018-01-27T08:17:21.950Z,67.70
2018-01-27T08:18:21.944Z,67.60
2018-01-27T08:19:21.938Z,75.70
2018-01-27T08:20:21.935Z,69.80
2018-01-27T08:21:21.933Z,72.40
2018-01-27T08:22:21.927Z,73.70
2018-01-27T08:23:21.924Z,74.30
2018-01-27T08:24:21.921Z,68.40
2018-01-27T08:25:21.920Z,67.90
2018-01-27T08:26:21.912Z,66.90
2018-01-27T08:27:21.982Z,70.50
2018-01-27T08:28:21.906Z,73.40
2018-01-27T08:29:21.901Z,76.30
2018-01-27T08:30:22.239Z,65.70
2018-01-27T08:31:21.906Z,69.50
2018-01-27T08:32:22.558Z,78.80
2018-01-27T08:33:21.883Z,68.20
2018-01-27T08:34:21.880Z,74.40
2018-01-27T08:35:21.883Z,74.00
2018-01-27T08:36:21.873Z,74.10
2018-01-27T08:37:21.870Z,76.00
2018-01-27T08:38:21.865Z,68.50
2018-01-27T08:39:21.869Z,67.20
2018-01-27T08:40:21.858Z,70.70
2018-01-27T08:41:21.860Z,69.70
2018-01-27T08:42:21.850Z,70.90
2018-01-27T08:43:21.846Z,74.60
2018-01-27T08:44:21.845Z,66.00
2018-01-27T08:45:21.852Z,71.60
2018-01-27T08:46:21.893Z,69.20
2018-01-27T08:47:21.832Z,72.70
2018-01-27T08:48:21.829Z,68.20
2018-01-27T08:49:21.825Z,66.10
2018-01-27T08:50:21.822Z,69.40
2018-01-27T08:51:21.819Z,66.40
2018-01-27T08:52:21.814Z,68.10
2018-01-27T08:53:21.809Z,66.10
2018-01-27T08:54:21.819Z,65.20
2018-01-27T08:55:21.803Z,69.10
2018-01-27T08:56:21.802Z,68.10
2018-01-27T08:57:21.797Z,72.10
2018-01-27T08:58:22.466Z,70.50
2018-01-27T08:59:21.788Z,67.40
2018-01-27T09:00:21.809Z,68.50
2018-01-27T09:01:21.785Z,68.50
2018-01-27T09:02:21.784Z,73.20
2018-01-27T09:03:21.775Z,69.70
2018-01-27T09:04:21.774Z,74.50
2018-01-27T09:05:21.782Z,73.20
2018-01-27T09:06:21.769Z,67.90
2018-01-27T09:07:21.762Z,70.10
2018-01-27T09:08:21.757Z,70.90
2018-01-27T09:09:21.753Z,73.10
2018-01-27T09:10:21.749Z,63.90
2018-01-27T09:11:21.747Z,64.60
2018-01-27T09:12:21.768Z,66.30
2018-01-27T09:13:21.743Z,65.40
2018-01-27T09:14:21.745Z,70.60
2018-01-27T09:15:21.734Z,69.30
2018-01-27T09:16:21.730Z,68.10
2018-01-27T09:17:21.727Z,66.80
2018-01-27T09:18:21.738Z,66.60
2018-01-27T09:19:21.729Z,68.10
2018-01-27T09:20:21.720Z,70.60
2018-01-27T09:21:21.712Z,68.00
2018-01-27T09:22:21.710Z,65.50
2018-01-27T09:23:21.722Z,65.30
2018-01-27T09:24:21.755Z,69.60
2018-01-27T09:25:21.704Z,61.80
2018-01-27T09:26:21.718Z,69.50
2018-01-27T09:27:21.699Z,69.20
2018-01-27T09:28:21.689Z,65.80
2018-01-27T09:29:21.782Z,76.00
2018-01-27T09:30:21.684Z,66.50
2018-01-27T09:31:22.393Z,60.10
2018-01-27T09:32:22.367Z,68.80
2018-01-27T09:33:21.804Z,67.00
2018-01-27T09:34:21.692Z,62.10
2018-01-27T09:35:21.792Z,71.20
2018-01-27T09:36:22.311Z,72.70
2018-01-27T09:37:21.875Z,65.00
2018-01-27T09:38:21.799Z,62.90
2018-01-27T09:39:22.827Z,68.30
2018-01-27T09:40:21.732Z,67.90
2018-01-27T09:41:21.782Z,66.80
2018-01-27T09:42:21.866Z,71.30
2018-01-27T09:43:21.813Z,57.50
2018-01-27T09:44:21.771Z,62.70
2018-01-27T09:45:21.788Z,68.90
2018-01-27T09:46:21.663Z,65.50
2018-01-27T09:47:21.739Z,61.80
2018-01-27T09:48:21.739Z,63.60
2018-01-27T09:49:21.683Z,66.90
2018-01-27T09:50:21.651Z,65.60
2018-01-27T09:51:21.633Z,64.10
2018-01-27T09:52:21.633Z,64.20
2018-01-27T09:53:21.764Z,68.00
2018-01-27T09:54:21.610Z,64.10
2018-01-27T09:55:21.622Z,66.20
2018-01-27T09:56:22.271Z,64.30
2018-01-27T09:57:21.595Z,61.60
2018-01-27T09:58:21.620Z,65.40
2018-01-27T09:59:21.671Z,62.50
2018-01-27T10:00:21.654Z,64.20
2018-01-27T10:01:21.645Z,60.90
2018-01-27T10:02:21.647Z,61.80
2018-01-27T10:03:21.611Z,61.90
2018-01-27T10:04:21.597Z,60.30
2018-01-27T10:05:21.626Z,60.90
2018-01-27T10:06:21.614Z,62.50
2018-01-27T10:07:21.594Z,73.40
2018-01-27T10:08:21.570Z,62.70
2018-01-27T10:09:21.591Z,60.60
2018-01-27T10:10:21.650Z,62.70
2018-01-27T10:11:21.581Z,58.90
2018-01-27T10:12:21.564Z,56.30
2018-01-27T10:13:21.549Z,58.50
2018-01-27T10:14:21.544Z,57.70
2018-01-27T10:15:21.552Z,63.00
2018-01-27T10:16:21.544Z,55.50
2018-01-27T10:17:21.550Z,58.60
2018-01-27T10:18:21.545Z,57.00
2018-01-27T10:19:21.529Z,56.50
2018-01-27T10:20:21.538Z,57.50
2018-01-27T10:21:21.538Z,60.30
2018-01-27T10:22:21.523Z,57.50
2018-01-27T10:23:21.536Z,58.40
2018-01-27T10:24:21.515Z,60.20
2018-01-27T10:25:21.513Z,54.40
2018-01-27T10:26:21.512Z,55.50
2018-01-27T10:27:21.533Z,57.50
2018-01-27T10:28:21.514Z,57.90
2018-01-27T10:29:21.518Z,57.10
2018-01-27T10:30:21.606Z,57.20
2018-01-27T10:31:21.497Z,59.60
2018-01-27T10:32:21.494Z,57.00
2018-01-27T10:33:21.493Z,55.70
2018-01-27T10:34:21.500Z,61.20
2018-01-27T10:35:21.487Z,57.50
2018-01-27T10:36:21.486Z,59.90
2018-01-27T10:37:21.484Z,64.30
2018-01-27T10:38:21.479Z,61.90
2018-01-27T10:39:21.476Z,61.10
2018-01-27T10:40:21.479Z,57.40
2018-01-27T10:41:21.472Z,66.50
2018-01-27T10:42:21.470Z,62.70
2018-01-27T10:43:21.474Z,66.70
2018-01-27T10:44:21.464Z,61.10
2018-01-27T10:45:21.462Z,64.50
2018-01-27T10:46:21.459Z,62.60
2018-01-27T10:47:21.459Z,67.00
2018-01-27T10:48:21.456Z,63.70
2018-01-27T10:49:21.545Z,66.90
2018-01-27T10:50:21.566Z,66.20
2018-01-27T10:51:21.453Z,71.20
2018-01-27T10:52:21.617Z,64.70
2018-01-27T10:53:21.442Z,68.30
2018-01-27T10:54:21.653Z,67.80
2018-01-27T10:55:22.355Z,75.30
2018-01-27T10:56:21.627Z,64.50
2018-01-27T10:57:21.441Z,64.50
2018-01-27T10:58:21.486Z,64.90
2018-01-27T10:59:21.431Z,69.10
2018-01-27T11:00:21.427Z,69.20
2018-01-27T11:01:21.997Z,67.70
2018-01-27T11:02:21.444Z,67.80
2018-01-27T11:03:21.627Z,66.80
2018-01-27T11:04:21.425Z,60.60
2018-01-27T11:05:21.417Z,68.90
2018-01-27T11:06:21.414Z,72.10
2018-01-27T11:07:21.418Z,74.00
2018-01-27T11:08:21.419Z,74.30
2018-01-27T11:09:21.409Z,59.40
2018-01-27T11:10:21.440Z,72.60
2018-01-27T11:11:21.410Z,70.20
2018-01-27T11:12:21.444Z,69.00
2018-01-27T11:13:21.398Z,60.40
2018-01-27T11:14:21.407Z,59.60
2018-01-27T11:15:21.394Z,58.80
2018-01-27T11:16:21.391Z,62.90
2018-01-27T11:17:21.444Z,62.00
2018-01-27T11:18:21.388Z,57.50
2018-01-27T11:19:21.395Z,64.00
2018-01-27T11:20:21.383Z,62.80
2018-01-27T11:21:21.384Z,62.20
2018-01-27T11:22:21.381Z,64.20
2018-01-27T11:23:21.375Z,63.20
2018-01-27T11:24:21.375Z,58.00
2018-01-27T11:25:21.372Z,56.30
2018-01-27T11:26:21.373Z,71.20
2018-01-27T11:27:21.405Z,64.70
2018-01-27T11:28:21.363Z,62.10
2018-01-27T11:29:21.365Z,67.10
2018-01-27T11:30:21.367Z,58.40
2018-01-27T11:31:21.362Z,67.80
2018-01-27T11:32:21.363Z,57.70
2018-01-27T11:33:21.359Z,63.70
2018-01-27T11:34:21.347Z,59.20
2018-01-27T11:35:21.354Z,69.20
2018-01-27T11:36:21.344Z,74.30
2018-01-27T11:37:21.350Z,64.50
2018-01-27T11:38:21.338Z,62.60
2018-01-27T11:39:21.341Z,63.10
2018-01-27T11:40:21.354Z,61.40
2018-01-27T11:41:21.331Z,64.60
2018-01-27T11:42:21.326Z,64.10
2018-01-27T11:43:21.327Z,61.30
2018-01-27T11:44:21.326Z,60.80
2018-01-27T11:45:21.320Z,59.70
2018-01-27T11:46:21.362Z,64.80
2018-01-27T11:47:21.331Z,62.00
2018-01-27T11:48:21.317Z,70.30
2018-01-27T11:49:21.311Z,72.80
2018-01-27T11:50:21.309Z,65.60
2018-01-27T11:51:21.308Z,69.50
2018-01-27T11:52:21.306Z,71.80
2018-01-27T11:53:21.532Z,73.30
2018-01-27T11:54:21.303Z,68.20
2018-01-27T11:55:21.301Z,62.80
2018-01-27T11:56:21.298Z,66.30
2018-01-27T11:57:21.293Z,65.70
2018-01-27T11:58:21.291Z,60.30
2018-01-27T11:59:21.297Z,72.20
2018-01-27T12:00:21.290Z,68.40
2018-01-27T12:01:21.295Z,60.80
2018-01-27T12:02:21.283Z,65.90
2018-01-27T12:03:21.286Z,63.60
2018-01-27T12:04:21.281Z,72.90
2018-01-27T12:05:21.276Z,69.10
2018-01-27T12:06:21.275Z,56.00
2018-01-27T12:07:21.274Z,73.50
2018-01-27T12:08:21.470Z,62.90
2018-01-27T12:09:21.313Z,61.50
2018-01-27T12:10:21.269Z,62.40
2018-01-27T12:11:21.276Z,54.40
2018-01-27T12:12:21.269Z,49.70
2018-01-27T12:13:21.262Z,46.50
2018-01-27T12:14:21.264Z,48.70
2018-01-27T12:15:21.299Z,53.80
2018-01-27T12:16:21.328Z,51.00
2018-01-27T12:17:22.426Z,55.20
2018-01-27T12:18:22.356Z,67.10
2018-01-27T12:19:22.406Z,55.10
2018-01-27T12:20:21.259Z,53.50
2018-01-27T12:21:21.280Z,61.90
2018-01-27T12:22:21.290Z,55.70
2018-01-27T12:23:21.846Z,53.90
2018-01-27T12:24:21.241Z,51.40
2018-01-27T12:25:21.240Z,49.10
2018-01-27T12:26:21.267Z,50.30
2018-01-27T12:27:21.238Z,50.60
2018-01-27T12:28:21.237Z,50.10
2018-01-27T12:29:21.259Z,49.60
2018-01-27T12:30:21.228Z,51.50
2018-01-27T12:31:21.249Z,51.60
2018-01-27T12:32:21.228Z,64.70
2018-01-27T12:33:21.318Z,70.20
2018-01-27T12:34:21.221Z,52.60
2018-01-27T12:35:21.221Z,51.60
2018-01-27T12:36:21.219Z,59.20
2018-01-27T12:37:21.227Z,56.20
2018-01-27T12:38:21.221Z,58.00
2018-01-27T12:39:21.229Z,53.30
2018-01-27T12:40:21.235Z,52.60
2018-01-27T12:41:21.211Z,55.00
2018-01-27T12:42:21.205Z,71.00
2018-01-27T12:43:21.256Z,48.30
2018-01-27T12:44:21.207Z,58.60
2018-01-27T12:45:21.200Z,55.10
2018-01-27T12:46:21.198Z,45.90
2018-01-27T12:47:21.200Z,44.00
2018-01-27T12:48:21.195Z,47.30
2018-01-27T12:49:21.193Z,48.00
2018-01-27T12:50:21.244Z,48.70
2018-01-27T12:51:21.188Z,46.60
2018-01-27T12:52:21.187Z,45.90